createdAt,value
2022-07-27T00:01:18.680Z,15.60
2022-07-27T00:03:48.040Z,15.60
2022-07-27T00:06:16.662Z,15.60
2022-07-27T00:08:45.446Z,15.60
2022-07-27T00:11:14.182Z,15.60
2022-07-27T00:13:42.770Z,15.70
2022-07-27T00:16:11.119Z,15.60
2022-07-27T00:18:41.067Z,15.60
2022-07-27T00:21:09.798Z,15.50
2022-07-27T00:23:38.170Z,15.50
2022-07-27T00:26:06.553Z,15.50
2022-07-27T00:28:34.859Z,15.40
2022-07-27T00:31:03.324Z,15.40
2022-07-27T00:33:31.699Z,15.30
2022-07-27T00:36:02.710Z,15.20
2022-07-27T00:38:31.122Z,15.20
2022-07-27T00:40:59.407Z,15.10
2022-07-27T00:43:27.720Z,15.10
2022-07-27T00:45:56.237Z,15.10
2022-07-27T00:48:24.588Z,15.00
2022-07-27T00:50:56.828Z,15.00
2022-07-27T00:53:26.565Z,14.90
2022-07-27T00:55:54.949Z,14.90
2022-07-27T00:58:23.587Z,14.80
2022-07-27T01:00:51.842Z,14.80
2022-07-27T01:03:20.664Z,14.80
2022-07-27T01:05:58.049Z,14.80
2022-07-27T01:08:28.023Z,14.80
2022-07-27T01:10:58.886Z,14.70
2022-07-27T01:13:27.559Z,14.70
2022-07-27T01:15:57.298Z,14.70
2022-07-27T01:18:31.817Z,14.50
2022-07-27T01:21:05.970Z,14.50
2022-07-27T01:23:36.175Z,14.40
2022-07-27T01:26:07.799Z,14.40
2022-07-27T01:28:36.115Z,14.40
2022-07-27T01:31:04.367Z,14.40
2022-07-27T01:33:32.757Z,14.30
2022-07-27T01:36:01.077Z,14.20
2022-07-27T01:38:29.373Z,14.20
2022-07-27T01:40:59.206Z,14.10
2022-07-27T01:43:27.490Z,14.00
2022-07-27T01:45:56.193Z,14.00
2022-07-27T01:48:24.576Z,14.00
2022-07-27T01:50:53.000Z,14.00
2022-07-27T01:53:22.090Z,13.90
2022-07-27T01:55:52.021Z,13.90
2022-07-27T01:58:21.640Z,13.80
2022-07-27T02:00:50.624Z,13.70
2022-07-27T02:03:19.091Z,13.70
2022-07-27T02:05:47.494Z,13.50
2022-07-27T02:08:15.771Z,13.50
2022-07-27T02:10:57.958Z,13.40
2022-07-27T02:13:28.360Z,13.40
2022-07-27T02:15:57.167Z,13.40
2022-07-27T02:18:33.423Z,13.40
2022-07-27T02:21:06.406Z,13.30
2022-07-27T02:23:35.332Z,13.40
2022-07-27T02:26:04.516Z,13.30
2022-07-27T02:28:34.731Z,13.30
2022-07-27T02:31:03.831Z,13.20
2022-07-27T02:33:32.317Z,13.20
2022-07-27T02:36:00.646Z,13.20
2022-07-27T02:38:28.999Z,13.20
2022-07-27T02:40:57.248Z,13.30
2022-07-27T02:43:25.470Z,13.30
2022-07-27T02:45:55.259Z,13.30
2022-07-27T02:48:23.568Z,13.30
2022-07-27T02:50:51.993Z,13.30
2022-07-27T02:53:20.286Z,13.30
2022-07-27T02:55:48.686Z,13.20
2022-07-27T02:58:16.952Z,13.20
2022-07-27T03:00:45.308Z,13.10
2022-07-27T03:03:15.149Z,13.10
2022-07-27T03:05:43.598Z,13.00
2022-07-27T03:08:12.155Z,13.00
2022-07-27T03:10:40.486Z,13.00
2022-07-27T03:13:16.856Z,13.00
2022-07-27T03:15:45.164Z,12.90
2022-07-27T03:18:14.883Z,12.90
2022-07-27T03:20:43.237Z,12.90
2022-07-27T03:23:11.564Z,12.90
2022-07-27T03:25:39.966Z,12.80
2022-07-27T03:28:08.384Z,12.80
2022-07-27T03:30:36.915Z,12.70
2022-07-27T03:33:05.492Z,12.70
2022-07-27T03:35:35.371Z,12.80
2022-07-27T03:38:03.763Z,12.70
2022-07-27T03:40:33.537Z,12.70
2022-07-27T03:43:01.920Z,12.50
2022-07-27T03:45:30.191Z,12.50
2022-07-27T03:47:58.539Z,12.50
2022-07-27T03:50:27.924Z,12.50
2022-07-27T03:52:57.559Z,12.50
2022-07-27T03:55:26.119Z,12.40
2022-07-27T03:57:54.515Z,12.30
2022-07-27T04:00:23.016Z,12.30
2022-07-27T04:02:52.002Z,12.30
2022-07-27T04:05:21.018Z,12.20
2022-07-27T04:07:49.943Z,12.20
2022-07-27T04:10:30.092Z,12.20
2022-07-27T04:13:00.063Z,12.10
2022-07-27T04:15:29.613Z,12.20
2022-07-27T04:17:58.090Z,12.20
2022-07-27T04:20:27.744Z,12.10
2022-07-27T04:22:56.470Z,12.00
2022-07-27T04:25:26.236Z,11.90
2022-07-27T04:27:55.352Z,11.90
2022-07-27T04:30:24.169Z,11.90
2022-07-27T04:32:52.602Z,12.00
2022-07-27T04:35:26.073Z,12.00
2022-07-27T04:37:57.845Z,12.00
2022-07-27T04:40:33.233Z,12.10
2022-07-27T04:43:02.222Z,12.00
2022-07-27T04:45:31.149Z,12.20
2022-07-27T04:47:59.823Z,12.20
2022-07-27T04:50:28.077Z,12.30
2022-07-27T04:52:56.332Z,12.40
2022-07-27T04:55:24.905Z,12.50
2022-07-27T04:57:54.516Z,12.70
2022-07-27T05:00:22.990Z,12.90
2022-07-27T05:02:51.224Z,13.00
2022-07-27T05:05:19.557Z,13.30
2022-07-27T05:07:47.910Z,13.30
2022-07-27T05:10:20.074Z,13.60
2022-07-27T05:12:49.269Z,13.80
2022-07-27T05:15:19.880Z,13.80
2022-07-27T05:17:48.815Z,14.20
2022-07-27T05:20:17.478Z,14.50
2022-07-27T05:22:45.893Z,14.90
2022-07-27T05:25:14.677Z,15.20
2022-07-27T05:27:54.717Z,15.50
2022-07-27T05:30:25.743Z,15.30
2022-07-27T05:32:54.790Z,15.20
2022-07-27T05:35:23.672Z,15.20
2022-07-27T05:37:52.081Z,15.10
2022-07-27T05:40:22.817Z,15.10
2022-07-27T05:42:51.143Z,15.10
2022-07-27T05:45:19.460Z,15.00
2022-07-27T05:47:49.205Z,15.00
2022-07-27T05:50:19.607Z,15.00
2022-07-27T05:52:47.972Z,15.00
2022-07-27T05:55:16.276Z,15.10
2022-07-27T05:57:44.788Z,15.20
2022-07-27T06:00:14.337Z,15.20
2022-07-27T06:02:43.023Z,15.10
2022-07-27T06:05:15.965Z,15.20
2022-07-27T06:08:00.427Z,15.20
2022-07-27T06:10:30.775Z,15.30
2022-07-27T06:12:59.640Z,15.30
2022-07-27T06:15:27.950Z,15.50
2022-07-27T06:17:56.394Z,15.60
2022-07-27T06:20:27.193Z,15.70
2022-07-27T06:23:00.209Z,15.80
2022-07-27T06:25:35.576Z,15.80
2022-07-27T06:28:05.179Z,15.90
2022-07-27T06:30:34.225Z,16.00
2022-07-27T06:33:04.286Z,16.10
2022-07-27T06:35:34.825Z,16.10
2022-07-27T06:38:06.276Z,16.20
2022-07-27T06:40:34.678Z,16.30
2022-07-27T06:43:02.938Z,16.50
2022-07-27T06:45:31.398Z,16.60
2022-07-27T06:47:59.691Z,16.70
2022-07-27T06:50:28.190Z,16.70
2022-07-27T06:52:57.839Z,16.80
2022-07-27T06:55:26.337Z,16.90
2022-07-27T06:57:54.830Z,17.00
2022-07-27T07:00:23.349Z,17.00
2022-07-27T07:02:59.777Z,17.10
2022-07-27T07:05:29.094Z,17.20
2022-07-27T07:07:59.273Z,17.30
2022-07-27T07:10:28.234Z,17.40
2022-07-27T07:12:56.797Z,17.40
2022-07-27T07:15:26.272Z,17.50
2022-07-27T07:17:55.025Z,17.50
2022-07-27T07:20:24.159Z,17.60
2022-07-27T07:22:52.849Z,17.70
2022-07-27T07:25:22.933Z,17.70
2022-07-27T07:27:51.482Z,17.80
2022-07-27T07:30:20.265Z,17.90
2022-07-27T07:32:48.667Z,17.90
2022-07-27T07:35:17.501Z,17.90
2022-07-27T07:37:50.197Z,17.90
2022-07-27T07:43:09.552Z,18.10
2022-07-27T07:45:50.169Z,18.10
2022-07-27T07:48:21.784Z,17.90
2022-07-27T07:50:53.264Z,18.00
2022-07-27T07:53:23.562Z,17.90
2022-07-27T07:55:52.902Z,17.80
2022-07-27T07:58:22.751Z,17.80
2022-07-27T08:00:51.153Z,17.80
2022-07-27T08:03:20.014Z,17.80
2022-07-27T08:05:48.582Z,17.70
2022-07-27T08:08:17.115Z,17.80
2022-07-27T08:10:45.610Z,17.70
2022-07-27T08:13:21.651Z,17.70
2022-07-27T08:15:52.457Z,17.80
2022-07-27T08:18:21.692Z,17.90
2022-07-27T08:20:50.510Z,17.90
2022-07-27T08:23:18.937Z,17.90
2022-07-27T08:25:47.435Z,17.80
2022-07-27T08:28:15.800Z,17.80
2022-07-27T08:30:44.554Z,17.80
2022-07-27T08:33:14.701Z,17.70
2022-07-27T08:35:43.527Z,17.70
2022-07-27T08:38:11.813Z,17.70
2022-07-27T08:40:44.325Z,17.70
2022-07-27T08:43:20.170Z,17.70
2022-07-27T08:45:56.469Z,17.70
2022-07-27T08:48:28.088Z,17.70
2022-07-27T08:50:57.140Z,17.90
2022-07-27T08:53:25.818Z,18.20
2022-07-27T08:55:56.820Z,18.30
2022-07-27T08:58:25.014Z,18.80
2022-07-27T09:00:53.959Z,19.20
2022-07-27T09:03:25.314Z,19.30
2022-07-27T09:05:56.044Z,19.10
2022-07-27T09:08:30.180Z,19.00
2022-07-27T09:11:00.964Z,18.90
2022-07-27T09:13:31.687Z,18.80
2022-07-27T09:16:19.043Z,19.10
2022-07-27T09:18:50.892Z,19.30
2022-07-27T09:21:21.759Z,19.40
2022-07-27T09:23:53.973Z,19.60
2022-07-27T09:26:33.403Z,19.80
2022-07-27T09:29:05.632Z,19.90
2022-07-27T09:31:42.727Z,20.00
2022-07-27T09:34:14.666Z,20.30
2022-07-27T09:36:54.580Z,20.60
2022-07-27T09:39:24.464Z,20.70
2022-07-27T09:41:56.098Z,21.10
2022-07-27T09:44:42.224Z,20.90
2022-07-27T09:47:23.093Z,21.00
2022-07-27T09:49:53.290Z,21.10
2022-07-27T09:52:27.165Z,21.30
2022-07-27T09:54:56.529Z,21.40
2022-07-27T09:57:24.870Z,21.30
2022-07-27T10:00:13.944Z,21.20
2022-07-27T10:02:43.466Z,21.20
2022-07-27T10:05:14.021Z,21.30
2022-07-27T10:07:42.575Z,21.50
2022-07-27T10:10:13.852Z,21.60
2022-07-27T10:12:43.158Z,21.70
2022-07-27T10:15:11.769Z,22.00
2022-07-27T10:17:44.091Z,22.20
2022-07-27T10:20:16.604Z,22.20
2022-07-27T10:22:56.024Z,22.30
2022-07-27T10:25:27.030Z,22.20
2022-07-27T10:28:14.893Z,22.10
2022-07-27T10:30:43.388Z,22.20
2022-07-27T10:33:16.557Z,22.30
2022-07-27T10:35:46.406Z,22.30
2022-07-27T10:38:18.379Z,22.30
2022-07-27T10:40:47.316Z,22.70
2022-07-27T10:43:21.545Z,22.80
2022-07-27T10:46:02.232Z,23.30
2022-07-27T10:48:46.082Z,23.30
2022-07-27T10:51:35.715Z,23.20
2022-07-27T10:54:22.416Z,22.80
2022-07-27T10:56:52.660Z,22.40
2022-07-27T11:00:07.955Z,22.00
2022-07-27T11:02:41.139Z,22.40
2022-07-27T11:05:48.431Z,22.90
2022-07-27T11:10:49.957Z,23.30
2022-07-27T11:13:20.716Z,23.30
2022-07-27T11:15:59.816Z,23.40
2022-07-27T11:18:29.421Z,23.80
2022-07-27T11:21:21.922Z,23.80
2022-07-27T11:23:58.034Z,23.80
2022-07-27T11:26:29.006Z,24.00
2022-07-27T11:28:57.589Z,24.20
2022-07-27T11:31:53.950Z,24.10
2022-07-27T11:34:17.352Z,24.10
2022-07-27T11:36:49.017Z,23.80
2022-07-27T11:39:54.419Z,24.10
2022-07-27T11:42:18.028Z,24.50
2022-07-27T11:44:49.219Z,24.30
2022-07-27T11:47:18.844Z,23.90
2022-07-27T11:49:47.251Z,23.60
2022-07-27T11:52:19.342Z,23.30
2022-07-27T11:54:53.381Z,23.00
2022-07-27T11:57:22.743Z,22.90
2022-07-27T11:59:51.113Z,22.70
2022-07-27T12:02:22.177Z,22.80
2022-07-27T12:04:53.223Z,22.90
2022-07-27T12:07:24.104Z,23.10
2022-07-27T12:09:55.461Z,22.90
2022-07-27T12:12:25.974Z,22.80
2022-07-27T12:14:56.842Z,22.80
2022-07-27T12:17:29.603Z,22.80
2022-07-27T12:20:04.670Z,22.60
2022-07-27T12:22:36.880Z,22.30
2022-07-27T12:25:16.058Z,22.30
2022-07-27T12:27:56.479Z,22.30
2022-07-27T12:30:32.295Z,22.30
2022-07-27T12:33:01.473Z,22.50
2022-07-27T12:35:37.321Z,22.80
2022-07-27T12:38:09.539Z,22.80
2022-07-27T12:40:48.328Z,22.80
2022-07-27T12:43:19.681Z,23.10
2022-07-27T12:45:50.077Z,23.20
2022-07-27T12:48:21.952Z,23.30
2022-07-27T12:51:00.765Z,23.30
2022-07-27T12:53:29.871Z,23.40
2022-07-27T12:56:05.077Z,23.80
2022-07-27T12:58:33.633Z,24.10
2022-07-27T13:01:02.012Z,24.10
2022-07-27T13:03:30.376Z,24.00
2022-07-27T13:05:58.850Z,24.00
2022-07-27T13:08:27.126Z,24.30
2022-07-27T13:10:59.776Z,24.30
2022-07-27T13:13:29.747Z,24.10
2022-07-27T13:15:58.151Z,24.20
2022-07-27T13:18:26.544Z,24.00
2022-07-27T13:20:55.658Z,24.00
2022-07-27T13:23:24.123Z,24.00
2022-07-27T13:25:52.753Z,24.00
2022-07-27T13:28:21.106Z,23.90
2022-07-27T13:30:50.875Z,23.70
2022-07-27T13:33:19.165Z,23.50
2022-07-27T13:35:47.639Z,23.40
2022-07-27T13:38:28.579Z,23.20
2022-07-27T13:40:57.282Z,23.10
2022-07-27T13:43:25.607Z,22.90
2022-07-27T13:45:55.419Z,22.70
2022-07-27T13:48:23.820Z,22.80
2022-07-27T13:50:52.126Z,23.10
2022-07-27T13:53:20.428Z,23.50
2022-07-27T13:55:48.888Z,23.90
2022-07-27T13:58:17.353Z,23.90
2022-07-27T14:00:45.678Z,24.10
2022-07-27T14:03:15.381Z,24.20
2022-07-27T14:05:49.596Z,24.30
2022-07-27T14:08:19.230Z,24.30
2022-07-27T14:10:47.529Z,24.30
2022-07-27T14:13:17.594Z,24.20
2022-07-27T14:15:52.817Z,24.30
2022-07-27T14:18:28.213Z,24.40
2022-07-27T14:20:58.239Z,24.60
2022-07-27T14:23:28.454Z,24.70
2022-07-27T14:25:58.469Z,24.40
2022-07-27T14:28:28.433Z,24.10
2022-07-27T14:30:57.214Z,23.80
2022-07-27T14:33:36.379Z,23.50
2022-07-27T14:36:05.835Z,23.30
2022-07-27T14:38:34.200Z,23.20
2022-07-27T14:41:02.917Z,23.10
2022-07-27T14:43:31.906Z,23.00
2022-07-27T14:46:01.102Z,22.90
2022-07-27T14:49:04.736Z,22.80
2022-07-27T14:51:19.271Z,22.80
2022-07-27T14:53:47.523Z,22.60
2022-07-27T14:56:15.920Z,22.50
2022-07-27T14:58:44.769Z,22.50
2022-07-27T15:01:16.654Z,22.40
2022-07-27T15:03:47.011Z,22.30
2022-07-27T15:06:15.310Z,22.30
2022-07-27T15:08:43.610Z,22.50
2022-07-27T15:11:12.121Z,22.50
2022-07-27T15:13:40.836Z,22.50
2022-07-27T15:16:09.260Z,22.50
2022-07-27T15:18:39.063Z,22.50
2022-07-27T15:21:13.041Z,22.40
2022-07-27T15:23:43.449Z,22.50
2022-07-27T15:26:12.546Z,22.60
2022-07-27T15:28:41.564Z,22.70
2022-07-27T15:31:09.954Z,22.80
2022-07-27T15:33:38.395Z,22.90
2022-07-27T15:36:08.632Z,22.80
2022-07-27T15:38:37.152Z,22.70
2022-07-27T15:41:05.760Z,22.50
2022-07-27T15:43:34.453Z,22.40
2022-07-27T15:46:02.920Z,22.30
2022-07-27T15:48:31.397Z,22.20
2022-07-27T15:50:59.854Z,22.20
2022-07-27T15:53:30.524Z,22.10
2022-07-27T15:55:58.892Z,22.10
2022-07-27T15:58:27.446Z,22.10
2022-07-27T16:00:58.140Z,22.00
2022-07-27T16:03:27.447Z,21.90
2022-07-27T16:05:56.777Z,21.90
2022-07-27T16:08:27.184Z,21.80
2022-07-27T16:10:56.874Z,21.80
2022-07-27T16:13:26.432Z,21.80
2022-07-27T16:16:12.310Z,21.80
2022-07-27T16:18:40.912Z,21.80
2022-07-27T16:21:09.474Z,21.70
2022-07-27T16:23:37.934Z,21.70
2022-07-27T16:26:08.368Z,21.70
2022-07-27T16:28:40.734Z,21.70
2022-07-27T16:31:11.461Z,21.60
2022-07-27T16:33:40.068Z,21.50
2022-07-27T16:36:09.046Z,21.50
2022-07-27T16:38:39.290Z,21.40
2022-07-27T16:41:20.086Z,21.40
2022-07-27T16:43:48.865Z,21.30
2022-07-27T16:46:17.767Z,21.30
2022-07-27T16:48:46.426Z,21.20
2022-07-27T16:51:16.982Z,21.20
2022-07-27T16:53:48.111Z,21.10
2022-07-27T16:56:16.672Z,21.10
2022-07-27T16:58:46.467Z,21.00
2022-07-27T17:01:21.990Z,21.00
2022-07-27T17:03:56.437Z,21.00
2022-07-27T17:06:25.953Z,20.90
2022-07-27T17:08:54.837Z,20.90
2022-07-27T17:11:23.517Z,20.90
2022-07-27T17:13:59.565Z,20.80
2022-07-27T17:16:28.823Z,20.80
2022-07-27T17:18:57.355Z,20.80
2022-07-27T17:21:26.007Z,20.80
2022-07-27T17:23:54.293Z,20.80
2022-07-27T17:26:24.675Z,20.80
2022-07-27T17:28:54.917Z,20.80
2022-07-27T17:31:23.429Z,20.80
2022-07-27T17:33:52.507Z,20.80
2022-07-27T17:36:21.300Z,20.80
2022-07-27T17:38:51.222Z,20.80
2022-07-27T17:41:24.450Z,20.80
2022-07-27T17:43:55.058Z,20.80
2022-07-27T17:46:24.559Z,20.70
2022-07-27T17:48:54.417Z,20.70
2022-07-27T17:51:25.225Z,20.70
2022-07-27T17:53:54.988Z,20.60
2022-07-27T17:56:23.257Z,20.60
2022-07-27T17:58:51.894Z,20.60
2022-07-27T18:01:46.619Z,20.60
2022-07-27T18:04:10.191Z,20.60
2022-07-27T18:06:38.587Z,20.50
2022-07-27T18:09:08.687Z,20.50
2022-07-27T18:11:37.250Z,20.40
2022-07-27T18:14:05.603Z,20.40
2022-07-27T18:16:40.414Z,20.30
2022-07-27T18:19:09.341Z,20.30
2022-07-27T18:21:38.180Z,20.30
2022-07-27T18:24:07.384Z,20.30
2022-07-27T18:26:38.878Z,20.20
2022-07-27T18:29:07.802Z,20.20
2022-07-27T18:31:37.853Z,20.20
2022-07-27T18:34:10.837Z,20.20
2022-07-27T18:36:42.513Z,20.20
2022-07-27T18:39:11.325Z,20.20
2022-07-27T18:41:40.729Z,20.10
2022-07-27T18:44:09.116Z,20.10
2022-07-27T18:46:38.835Z,20.10
2022-07-27T18:49:07.949Z,20.10
2022-07-27T18:51:38.411Z,20.10
2022-07-27T18:54:07.090Z,20.10
2022-07-27T18:56:35.536Z,20.10
2022-07-27T18:59:03.830Z,20.00
2022-07-27T19:01:32.537Z,20.00
2022-07-27T19:04:02.781Z,19.90
2022-07-27T19:06:31.720Z,19.90
2022-07-27T19:09:00.090Z,19.90
2022-07-27T19:11:28.379Z,19.80
2022-07-27T19:13:57.961Z,19.80
2022-07-27T19:16:26.950Z,19.70
2022-07-27T19:18:55.299Z,19.70
2022-07-27T19:21:24.967Z,19.60
2022-07-27T19:23:53.259Z,19.60
2022-07-27T19:26:21.650Z,19.50
2022-07-27T19:28:49.981Z,19.50
2022-07-27T19:31:23.217Z,19.50
2022-07-27T19:33:52.489Z,19.30
2022-07-27T19:36:22.948Z,19.30
2022-07-27T19:38:52.871Z,19.20
2022-07-27T19:41:21.145Z,19.20
2022-07-27T19:43:49.814Z,19.20
2022-07-27T19:46:18.300Z,19.10
2022-07-27T19:48:47.121Z,19.00
2022-07-27T19:51:16.280Z,19.00
2022-07-27T19:53:44.856Z,19.00
2022-07-27T19:56:14.582Z,18.90
2022-07-27T19:58:43.141Z,18.80
2022-07-27T20:01:11.740Z,18.80
2022-07-27T20:03:53.786Z,18.70
2022-07-27T20:06:23.701Z,18.70
2022-07-27T20:08:55.752Z,18.60
2022-07-27T20:11:25.578Z,18.60
2022-07-27T20:13:53.874Z,18.60
2022-07-27T20:16:22.211Z,18.50
2022-07-27T20:18:50.644Z,18.50
2022-07-27T20:21:23.206Z,18.40
2022-07-27T20:23:53.333Z,18.40
2022-07-27T20:26:21.933Z,18.30
2022-07-27T20:28:51.585Z,18.30
2022-07-27T20:31:20.265Z,18.20
2022-07-27T20:33:48.657Z,18.20
2022-07-27T20:36:16.960Z,18.10
2022-07-27T20:38:45.359Z,18.00
2022-07-27T20:41:13.800Z,18.00
2022-07-27T20:43:42.104Z,17.90
2022-07-27T20:46:11.853Z,17.90
2022-07-27T20:48:42.250Z,17.80
2022-07-27T20:51:10.586Z,17.80
2022-07-27T20:53:39.456Z,17.70
2022-07-27T20:56:08.088Z,17.70
2022-07-27T20:58:36.364Z,17.70
2022-07-27T21:01:04.930Z,17.60
2022-07-27T21:03:34.741Z,17.50
2022-07-27T21:06:03.576Z,17.50
2022-07-27T21:08:31.950Z,17.40
2022-07-27T21:11:00.370Z,17.40
2022-07-27T21:13:28.707Z,17.30
2022-07-27T21:15:56.982Z,17.30
2022-07-27T21:18:25.303Z,17.20
2022-07-27T21:20:54.946Z,17.10
2022-07-27T21:23:40.787Z,17.00
2022-07-27T21:26:09.108Z,17.00
2022-07-27T21:28:37.414Z,17.00
2022-07-27T21:31:09.586Z,16.90
2022-07-27T21:33:39.929Z,16.90
2022-07-27T21:36:10.187Z,16.90
2022-07-27T21:38:38.459Z,16.80
2022-07-27T21:41:06.838Z,16.80
2022-07-27T21:43:35.669Z,16.70
2022-07-27T21:46:04.131Z,16.70
2022-07-27T21:48:32.712Z,16.60
2022-07-27T21:51:01.062Z,16.60
2022-07-27T21:53:30.728Z,16.50
2022-07-27T21:55:59.310Z,16.50
2022-07-27T21:58:27.772Z,16.50
2022-07-27T22:00:56.298Z,16.40
2022-07-27T22:03:24.746Z,16.50
2022-07-27T22:05:53.017Z,16.50
2022-07-27T22:08:22.546Z,16.40
2022-07-27T22:10:52.437Z,16.40
2022-07-27T22:13:20.768Z,16.30
2022-07-27T22:15:49.781Z,16.30
2022-07-27T22:18:18.624Z,16.30
2022-07-27T22:20:47.231Z,16.30
2022-07-27T22:23:16.243Z,16.20
2022-07-27T22:25:44.961Z,16.20
2022-07-27T22:28:14.690Z,16.20
2022-07-27T22:30:42.961Z,16.20
2022-07-27T22:33:28.581Z,16.20
2022-07-27T22:35:57.757Z,16.20
2022-07-27T22:38:28.144Z,16.10
2022-07-27T22:40:57.015Z,16.10
2022-07-27T22:43:26.732Z,16.10
2022-07-27T22:45:55.070Z,16.10
2022-07-27T22:48:23.686Z,16.00
2022-07-27T22:50:52.013Z,16.00
2022-07-27T22:53:20.424Z,15.90
2022-07-27T22:55:49.098Z,15.90
2022-07-27T22:58:17.441Z,15.90
2022-07-27T23:00:47.193Z,15.90
2022-07-27T23:03:15.595Z,15.80
2022-07-27T23:05:43.969Z,15.80
2022-07-27T23:08:12.400Z,15.80
2022-07-27T23:10:49.722Z,15.80
2022-07-27T23:13:19.676Z,15.80
2022-07-27T23:15:50.144Z,15.80
2022-07-27T23:18:18.812Z,15.80
2022-07-27T23:20:47.368Z,15.80
2022-07-27T23:23:16.653Z,15.80
2022-07-27T23:25:45.694Z,15.80
2022-07-27T23:28:16.053Z,15.80
2022-07-27T23:30:44.473Z,15.80
2022-07-27T23:33:14.326Z,15.80
2022-07-27T23:35:42.655Z,15.80
2022-07-27T23:38:11.061Z,15.80
2022-07-27T23:40:39.356Z,15.70
2022-07-27T23:43:07.700Z,15.80
2022-07-27T23:45:36.001Z,15.70
2022-07-27T23:48:04.479Z,15.70
2022-07-27T23:50:34.202Z,15.70
2022-07-27T23:53:02.597Z,15.70
2022-07-27T23:55:30.934Z,15.70
2022-07-27T23:57:59.248Z,15.70
